sensor_id;sensor_type;location;lat;lon;timestamp;temperature;humidity
23385;DHT22;11865;45.394;10.978;2022-10-16T00:01:41;15.60;99.90
23385;DHT22;11865;45.394;10.978;2022-10-16T00:04:09;15.80;99.90
23385;DHT22;11865;45.394;10.978;2022-10-16T00:06:37;15.90;99.90
23385;DHT22;11865;45.394;10.978;2022-10-16T00:09:06;15.90;99.90
23385;DHT22;11865;45.394;10.978;2022-10-16T00:11:36;16.00;99.90
23385;DHT22;11865;45.394;10.978;2022-10-16T00:14:08;16.10;99.90
23385;DHT22;11865;45.394;10.978;2022-10-16T00:16:36;16.10;99.90
23385;DHT22;11865;45.394;10.978;2022-10-16T00:19:04;15.90;99.90
23385;DHT22;11865;45.394;10.978;2022-10-16T00:21:32;15.70;99.90
23385;DHT22;11865;45.394;10.978;2022-10-16T00:24:04;15.60;99.90
23385;DHT22;11865;45.394;10.978;2022-10-16T00:26:34;15.40;99.90
23385;DHT22;11865;45.394;10.978;2022-10-16T00:29:02;15.20;99.90
23385;DHT22;11865;45.394;10.978;2022-10-16T00:31:30;15.10;99.90
23385;DHT22;11865;45.394;10.978;2022-10-16T00:33:58;15.00;99.90
23385;DHT22;11865;45.394;10.978;2022-10-16T00:36:26;14.90;99.90
23385;DHT22;11865;45.394;10.978;2022-10-16T00:38:55;14.90;99.90
23385;DHT22;11865;45.394;10.978;2022-10-16T00:41:24;14.80;99.90
23385;DHT22;11865;45.394;10.978;2022-10-16T00:43:55;14.80;99.90
23385;DHT22;11865;45.394;10.978;2022-10-16T00:57:09;14.50;99.90
23385;DHT22;11865;45.394;10.978;2022-10-16T00:59:39;14.40;99.90
23385;DHT22;11865;45.394;10.978;2022-10-16T01:02:11;14.50;99.90
23385;DHT22;11865;45.394;10.978;2022-10-16T01:04:50;14.90;99.90
23385;DHT22;11865;45.394;10.978;2022-10-16T01:07:52;15.00;99.90
23385;DHT22;11865;45.394;10.978;2022-10-16T01:10:40;14.90;99.90
23385;DHT22;11865;45.394;10.978;2022-10-16T01:13:19;14.60;99.90
23385;DHT22;11865;45.394;10.978;2022-10-16T01:16:00;14.70;99.90
23385;DHT22;11865;45.394;10.978;2022-10-16T01:18:47;14.80;99.90
23385;DHT22;11865;45.394;10.978;2022-10-16T01:21:22;14.60;99.90
23385;DHT22;11865;45.394;10.978;2022-10-16T01:27:03;14.30;99.90
23385;DHT22;11865;45.394;10.978;2022-10-16T01:32:17;14.20;99.90
23385;DHT22;11865;45.394;10.978;2022-10-16T01:35:11;14.10;99.90
23385;DHT22;11865;45.394;10.978;2022-10-16T01:37:51;14.10;99.90
23385;DHT22;11865;45.394;10.978;2022-10-16T01:40:23;14.40;99.90
23385;DHT22;11865;45.394;10.978;2022-10-16T01:43:01;14.60;99.90
23385;DHT22;11865;45.394;10.978;2022-10-16T01:45:31;14.50;99.90
23385;DHT22;11865;45.394;10.978;2022-10-16T01:48:01;14.40;99.90
23385;DHT22;11865;45.394;10.978;2022-10-16T01:50:37;14.30;99.90
23385;DHT22;11865;45.394;10.978;2022-10-16T01:53:09;14.30;99.90
23385;DHT22;11865;45.394;10.978;2022-10-16T01:55:42;14.20;99.90
23385;DHT22;11865;45.394;10.978;2022-10-16T01:58:14;14.20;99.90
23385;DHT22;11865;45.394;10.978;2022-10-16T02:00:44;14.30;99.90
23385;DHT22;11865;45.394;10.978;2022-10-16T02:03:16;14.30;99.90
23385;DHT22;11865;45.394;10.978;2022-10-16T02:05:54;14.30;99.90
23385;DHT22;11865;45.394;10.978;2022-10-16T02:08:24;14.40;99.90
23385;DHT22;11865;45.394;10.978;2022-10-16T02:10:56;14.80;99.90
23385;DHT22;11865;45.394;10.978;2022-10-16T02:13:41;15.20;99.90
23385;DHT22;11865;45.394;10.978;2022-10-16T02:16:13;15.20;99.90
23385;DHT22;11865;45.394;10.978;2022-10-16T02:18:42;15.10;99.90
23385;DHT22;11865;45.394;10.978;2022-10-16T02:21:19;14.90;99.90
23385;DHT22;11865;45.394;10.978;2022-10-16T02:26:52;14.90;99.90
23385;DHT22;11865;45.394;10.978;2022-10-16T02:29:25;15.20;99.90
23385;DHT22;11865;45.394;10.978;2022-10-16T02:31:56;15.40;99.90
23385;DHT22;11865;45.394;10.978;2022-10-16T02:34:26;15.20;99.90
23385;DHT22;11865;45.394;10.978;2022-10-16T02:36:56;15.10;99.90
23385;DHT22;11865;45.394;10.978;2022-10-16T02:39:26;15.10;99.90
23385;DHT22;11865;45.394;10.978;2022-10-16T02:41:54;15.00;99.90
23385;DHT22;11865;45.394;10.978;2022-10-16T02:44:21;15.10;99.90
23385;DHT22;11865;45.394;10.978;2022-10-16T02:46:49;15.00;99.90
23385;DHT22;11865;45.394;10.978;2022-10-16T02:49:16;15.10;99.90
23385;DHT22;11865;45.394;10.978;2022-10-16T02:51:45;15.10;99.90
23385;DHT22;11865;45.394;10.978;2022-10-16T02:54:12;15.10;99.90
23385;DHT22;11865;45.394;10.978;2022-10-16T02:56:40;15.00;99.90
23385;DHT22;11865;45.394;10.978;2022-10-16T02:59:07;15.10;99.90
23385;DHT22;11865;45.394;10.978;2022-10-16T03:01:35;15.10;99.90
23385;DHT22;11865;45.394;10.978;2022-10-16T03:04:03;15.10;99.90
23385;DHT22;11865;45.394;10.978;2022-10-16T03:06:31;15.10;99.90
23385;DHT22;11865;45.394;10.978;2022-10-16T03:08:58;15.10;99.90
23385;DHT22;11865;45.394;10.978;2022-10-16T03:11:26;15.00;99.90
23385;DHT22;11865;45.394;10.978;2022-10-16T03:13:53;15.10;99.90
23385;DHT22;11865;45.394;10.978;2022-10-16T03:16:21;15.10;99.90
23385;DHT22;11865;45.394;10.978;2022-10-16T03:18:49;15.10;99.90
23385;DHT22;11865;45.394;10.978;2022-10-16T03:21:17;15.20;99.90
23385;DHT22;11865;45.394;10.978;2022-10-16T03:23:44;15.20;99.90
23385;DHT22;11865;45.394;10.978;2022-10-16T03:26:11;15.10;99.90
23385;DHT22;11865;45.394;10.978;2022-10-16T03:28:39;15.10;99.90
23385;DHT22;11865;45.394;10.978;2022-10-16T03:31:06;15.10;99.90
23385;DHT22;11865;45.394;10.978;2022-10-16T03:33:35;15.20;99.90
23385;DHT22;11865;45.394;10.978;2022-10-16T03:36:02;15.20;99.90
23385;DHT22;11865;45.394;10.978;2022-10-16T03:38:30;15.10;99.90
23385;DHT22;11865;45.394;10.978;2022-10-16T03:40:57;15.00;99.90
23385;DHT22;11865;45.394;10.978;2022-10-16T03:43:25;15.10;99.90
23385;DHT22;11865;45.394;10.978;2022-10-16T03:45:52;15.10;99.90
23385;DHT22;11865;45.394;10.978;2022-10-16T03:48:20;15.10;99.90
23385;DHT22;11865;45.394;10.978;2022-10-16T03:50:47;15.20;99.90
23385;DHT22;11865;45.394;10.978;2022-10-16T03:53:15;15.20;99.90
23385;DHT22;11865;45.394;10.978;2022-10-16T03:55:43;15.20;99.90
23385;DHT22;11865;45.394;10.978;2022-10-16T03:58:11;15.20;99.90
23385;DHT22;11865;45.394;10.978;2022-10-16T04:00:42;15.30;99.90
23385;DHT22;11865;45.394;10.978;2022-10-16T04:03:10;15.20;99.90
23385;DHT22;11865;45.394;10.978;2022-10-16T04:05:38;15.20;99.90
23385;DHT22;11865;45.394;10.978;2022-10-16T04:08:06;15.20;99.90
23385;DHT22;11865;45.394;10.978;2022-10-16T04:10:33;15.10;99.90
23385;DHT22;11865;45.394;10.978;2022-10-16T04:13:01;15.10;99.90
23385;DHT22;11865;45.394;10.978;2022-10-16T04:15:28;15.10;99.90
23385;DHT22;11865;45.394;10.978;2022-10-16T04:17:56;15.10;99.90
23385;DHT22;11865;45.394;10.978;2022-10-16T04:20:23;15.00;99.90
23385;DHT22;11865;45.394;10.978;2022-10-16T04:22:51;15.00;99.90
23385;DHT22;11865;45.394;10.978;2022-10-16T04:25:18;15.00;99.90
23385;DHT22;11865;45.394;10.978;2022-10-16T04:27:45;14.90;99.90
23385;DHT22;11865;45.394;10.978;2022-10-16T04:30:13;14.90;99.90
23385;DHT22;11865;45.394;10.978;2022-10-16T04:32:41;14.90;99.90
23385;DHT22;11865;45.394;10.978;2022-10-16T04:35:08;14.80;99.90
23385;DHT22;11865;45.394;10.978;2022-10-16T04:37:36;14.80;99.90
23385;DHT22;11865;45.394;10.978;2022-10-16T04:40:04;14.90;99.90
23385;DHT22;11865;45.394;10.978;2022-10-16T04:42:31;15.00;99.90
23385;DHT22;11865;45.394;10.978;2022-10-16T04:44:59;15.00;99.90
23385;DHT22;11865;45.394;10.978;2022-10-16T04:47:26;15.00;99.90
23385;DHT22;11865;45.394;10.978;2022-10-16T04:49:54;15.10;99.90
23385;DHT22;11865;45.394;10.978;2022-10-16T04:52:22;15.10;99.90
23385;DHT22;11865;45.394;10.978;2022-10-16T04:54:51;15.10;99.90
23385;DHT22;11865;45.394;10.978;2022-10-16T04:57:19;15.20;99.90
23385;DHT22;11865;45.394;10.978;2022-10-16T04:59:46;15.30;99.90
23385;DHT22;11865;45.394;10.978;2022-10-16T05:02:14;15.50;99.90
23385;DHT22;11865;45.394;10.978;2022-10-16T05:04:41;15.60;99.90
23385;DHT22;11865;45.394;10.978;2022-10-16T05:07:08;15.60;99.90
23385;DHT22;11865;45.394;10.978;2022-10-16T05:09:36;15.50;99.90
23385;DHT22;11865;45.394;10.978;2022-10-16T05:12:04;15.50;99.90
23385;DHT22;11865;45.394;10.978;2022-10-16T05:14:31;15.60;99.90
23385;DHT22;11865;45.394;10.978;2022-10-16T05:16:59;15.70;99.90
23385;DHT22;11865;45.394;10.978;2022-10-16T05:19:27;15.70;99.90
23385;DHT22;11865;45.394;10.978;2022-10-16T05:21:55;15.70;99.90
23385;DHT22;11865;45.394;10.978;2022-10-16T05:24:23;15.60;99.90
23385;DHT22;11865;45.394;10.978;2022-10-16T05:26:50;15.60;99.90
23385;DHT22;11865;45.394;10.978;2022-10-16T05:29:18;15.60;99.90
23385;DHT22;11865;45.394;10.978;2022-10-16T05:31:46;15.50;99.90
23385;DHT22;11865;45.394;10.978;2022-10-16T05:34:13;15.50;99.90
23385;DHT22;11865;45.394;10.978;2022-10-16T05:36:41;15.50;99.90
23385;DHT22;11865;45.394;10.978;2022-10-16T05:39:08;15.70;99.90
23385;DHT22;11865;45.394;10.978;2022-10-16T05:41:36;15.90;99.90
23385;DHT22;11865;45.394;10.978;2022-10-16T05:44:04;16.00;99.90
23385;DHT22;11865;45.394;10.978;2022-10-16T05:46:33;16.10;99.90
23385;DHT22;11865;45.394;10.978;2022-10-16T05:49:00;16.10;99.90
23385;DHT22;11865;45.394;10.978;2022-10-16T05:51:28;16.10;99.90
23385;DHT22;11865;45.394;10.978;2022-10-16T05:53:55;16.10;99.90
23385;DHT22;11865;45.394;10.978;2022-10-16T05:56:23;16.20;99.90
23385;DHT22;11865;45.394;10.978;2022-10-16T05:58:50;16.20;99.90
23385;DHT22;11865;45.394;10.978;2022-10-16T06:01:19;16.30;99.90
23385;DHT22;11865;45.394;10.978;2022-10-16T06:03:48;16.30;99.90
23385;DHT22;11865;45.394;10.978;2022-10-16T06:06:21;16.40;99.90
23385;DHT22;11865;45.394;10.978;2022-10-16T06:08:50;16.40;99.90
23385;DHT22;11865;45.394;10.978;2022-10-16T06:11:24;16.40;99.90
23385;DHT22;11865;45.394;10.978;2022-10-16T06:13:54;16.40;99.90
23385;DHT22;11865;45.394;10.978;2022-10-16T06:16:22;16.30;99.90
23385;DHT22;11865;45.394;10.978;2022-10-16T06:18:51;16.40;99.90
23385;DHT22;11865;45.394;10.978;2022-10-16T06:21:21;16.50;99.90
23385;DHT22;11865;45.394;10.978;2022-10-16T06:23:49;16.50;99.90
23385;DHT22;11865;45.394;10.978;2022-10-16T06:26:19;16.50;99.90
23385;DHT22;11865;45.394;10.978;2022-10-16T06:28:47;16.60;99.90
23385;DHT22;11865;45.394;10.978;2022-10-16T06:31:15;16.70;99.90
23385;DHT22;11865;45.394;10.978;2022-10-16T06:33:43;16.70;99.90
23385;DHT22;11865;45.394;10.978;2022-10-16T06:36:15;16.80;99.90
23385;DHT22;11865;45.394;10.978;2022-10-16T06:38:43;16.90;99.90
23385;DHT22;11865;45.394;10.978;2022-10-16T06:41:19;17.00;99.90
23385;DHT22;11865;45.394;10.978;2022-10-16T06:43:47;17.00;99.90
23385;DHT22;11865;45.394;10.978;2022-10-16T06:46:17;17.00;99.90
23385;DHT22;11865;45.394;10.978;2022-10-16T06:48:46;17.10;99.90
23385;DHT22;11865;45.394;10.978;2022-10-16T06:51:24;17.20;99.90
23385;DHT22;11865;45.394;10.978;2022-10-16T06:53:54;17.20;99.90
23385;DHT22;11865;45.394;10.978;2022-10-16T06:56:32;17.20;99.90
23385;DHT22;11865;45.394;10.978;2022-10-16T06:58:59;17.40;99.90
23385;DHT22;11865;45.394;10.978;2022-10-16T07:01:27;17.30;99.90
23385;DHT22;11865;45.394;10.978;2022-10-16T07:03:55;17.40;99.90
23385;DHT22;11865;45.394;10.978;2022-10-16T07:06:24;17.40;99.90
23385;DHT22;11865;45.394;10.978;2022-10-16T07:08:52;17.60;99.90
23385;DHT22;11865;45.394;10.978;2022-10-16T07:11:22;17.60;99.90
23385;DHT22;11865;45.394;10.978;2022-10-16T07:13:50;17.60;99.90
23385;DHT22;11865;45.394;10.978;2022-10-16T07:16:25;17.60;99.90
23385;DHT22;11865;45.394;10.978;2022-10-16T07:18:54;17.70;99.90
23385;DHT22;11865;45.394;10.978;2022-10-16T07:21:28;17.70;99.90
23385;DHT22;11865;45.394;10.978;2022-10-16T07:23:58;17.70;99.90
23385;DHT22;11865;45.394;10.978;2022-10-16T07:26:28;17.80;99.90
23385;DHT22;11865;45.394;10.978;2022-10-16T07:28:56;17.80;99.90
23385;DHT22;11865;45.394;10.978;2022-10-16T07:31:25;17.90;99.90
23385;DHT22;11865;45.394;10.978;2022-10-16T07:33:53;17.90;99.90
23385;DHT22;11865;45.394;10.978;2022-10-16T07:36:21;18.00;99.90
23385;DHT22;11865;45.394;10.978;2022-10-16T07:38:48;18.10;99.90
23385;DHT22;11865;45.394;10.978;2022-10-16T07:41:20;18.20;99.90
23385;DHT22;11865;45.394;10.978;2022-10-16T07:43:49;18.20;99.90
23385;DHT22;11865;45.394;10.978;2022-10-16T07:46:18;18.30;99.90
23385;DHT22;11865;45.394;10.978;2022-10-16T07:48:46;18.40;99.90
23385;DHT22;11865;45.394;10.978;2022-10-16T07:51:19;18.50;99.90
23385;DHT22;11865;45.394;10.978;2022-10-16T07:53:47;18.50;99.90
23385;DHT22;11865;45.394;10.978;2022-10-16T07:56:16;18.60;99.90
23385;DHT22;11865;45.394;10.978;2022-10-16T07:58:44;18.60;99.90
23385;DHT22;11865;45.394;10.978;2022-10-16T08:01:13;18.70;99.90
23385;DHT22;11865;45.394;10.978;2022-10-16T08:03:46;18.70;99.90
23385;DHT22;11865;45.394;10.978;2022-10-16T08:06:15;18.80;99.90
23385;DHT22;11865;45.394;10.978;2022-10-16T08:08:42;18.80;99.90
23385;DHT22;11865;45.394;10.978;2022-10-16T08:11:10;18.90;99.90
23385;DHT22;11865;45.394;10.978;2022-10-16T08:13:38;18.90;99.90
23385;DHT22;11865;45.394;10.978;2022-10-16T08:16:05;18.90;99.90
23385;DHT22;11865;45.394;10.978;2022-10-16T08:18:37;18.70;99.90
23385;DHT22;11865;45.394;10.978;2022-10-16T08:21:06;18.50;99.90
23385;DHT22;11865;45.394;10.978;2022-10-16T08:23:33;18.30;99.90
23385;DHT22;11865;45.394;10.978;2022-10-16T08:26:04;18.30;99.90
23385;DHT22;11865;45.394;10.978;2022-10-16T08:28:32;18.50;99.90
23385;DHT22;11865;45.394;10.978;2022-10-16T08:31:11;18.70;99.90
23385;DHT22;11865;45.394;10.978;2022-10-16T08:33:41;19.00;99.90
23385;DHT22;11865;45.394;10.978;2022-10-16T08:36:10;19.20;99.90
23385;DHT22;11865;45.394;10.978;2022-10-16T08:38:38;19.30;99.90
23385;DHT22;11865;45.394;10.978;2022-10-16T08:49:19;19.70;99.90
23385;DHT22;11865;45.394;10.978;2022-10-16T08:51:47;19.70;99.90
23385;DHT22;11865;45.394;10.978;2022-10-16T08:54:36;19.70;99.90
23385;DHT22;11865;45.394;10.978;2022-10-16T08:57:17;19.90;99.90
23385;DHT22;11865;45.394;10.978;2022-10-16T08:59:51;19.90;99.90
23385;DHT22;11865;45.394;10.978;2022-10-16T09:02:40;19.90;99.90
23385;DHT22;11865;45.394;10.978;2022-10-16T09:05:17;19.90;99.90
23385;DHT22;11865;45.394;10.978;2022-10-16T09:10:51;20.30;99.90
23385;DHT22;11865;45.394;10.978;2022-10-16T09:13:29;20.30;99.90
23385;DHT22;11865;45.394;10.978;2022-10-16T09:18:51;20.30;99.60
23385;DHT22;11865;45.394;10.978;2022-10-16T09:21:27;20.10;99.90
23385;DHT22;11865;45.394;10.978;2022-10-16T09:24:06;20.40;99.90
23385;DHT22;11865;45.394;10.978;2022-10-16T09:26:35;20.50;99.90
23385;DHT22;11865;45.394;10.978;2022-10-16T09:29:03;20.50;99.80
23385;DHT22;11865;45.394;10.978;2022-10-16T09:31:31;20.50;99.90
23385;DHT22;11865;45.394;10.978;2022-10-16T09:34:00;20.80;99.90
23385;DHT22;11865;45.394;10.978;2022-10-16T09:36:41;20.80;99.90
23385;DHT22;11865;45.394;10.978;2022-10-16T09:39:10;20.70;99.90
23385;DHT22;11865;45.394;10.978;2022-10-16T09:41:41;20.70;99.80
23385;DHT22;11865;45.394;10.978;2022-10-16T09:44:29;20.70;99.90
23385;DHT22;11865;45.394;10.978;2022-10-16T09:47:25;20.80;99.40
23385;DHT22;11865;45.394;10.978;2022-10-16T09:49:56;20.90;99.80
23385;DHT22;11865;45.394;10.978;2022-10-16T09:52:25;20.80;99.90
23385;DHT22;11865;45.394;10.978;2022-10-16T09:54:55;20.70;99.80
23385;DHT22;11865;45.394;10.978;2022-10-16T09:57:23;21.00;99.90
23385;DHT22;11865;45.394;10.978;2022-10-16T09:59:53;21.10;99.70
23385;DHT22;11865;45.394;10.978;2022-10-16T10:02:35;21.10;99.90
23385;DHT22;11865;45.394;10.978;2022-10-16T10:05:04;21.00;99.90
23385;DHT22;11865;45.394;10.978;2022-10-16T10:07:39;21.00;99.90
23385;DHT22;11865;45.394;10.978;2022-10-16T10:12:50;21.20;99.90
23385;DHT22;11865;45.394;10.978;2022-10-16T10:15:18;21.00;99.90
23385;DHT22;11865;45.394;10.978;2022-10-16T10:17:51;21.10;99.90
23385;DHT22;11865;45.394;10.978;2022-10-16T10:20:31;21.10;99.80
23385;DHT22;11865;45.394;10.978;2022-10-16T10:23:13;21.30;99.90
23385;DHT22;11865;45.394;10.978;2022-10-16T10:28:47;21.40;99.60
23385;DHT22;11865;45.394;10.978;2022-10-16T10:33:59;21.30;99.90
23385;DHT22;11865;45.394;10.978;2022-10-16T10:36:41;21.50;99.90
23385;DHT22;11865;45.394;10.978;2022-10-16T10:39:30;21.30;99.90
23385;DHT22;11865;45.394;10.978;2022-10-16T10:47:38;21.50;99.90
23385;DHT22;11865;45.394;10.978;2022-10-16T10:53:46;21.60;99.30
23385;DHT22;11865;45.394;10.978;2022-10-16T11:08:08;22.00;98.90
23385;DHT22;11865;45.394;10.978;2022-10-16T11:10:47;22.00;98.90
23385;DHT22;11865;45.394;10.978;2022-10-16T11:13:37;21.80;99.10
23385;DHT22;11865;45.394;10.978;2022-10-16T11:21:24;22.10;98.40
23385;DHT22;11865;45.394;10.978;2022-10-16T11:23:59;22.00;99.10
23385;DHT22;11865;45.394;10.978;2022-10-16T11:26:30;21.90;99.30
23385;DHT22;11865;45.394;10.978;2022-10-16T11:29:02;21.90;99.00
23385;DHT22;11865;45.394;10.978;2022-10-16T11:31:53;21.70;99.80
23385;DHT22;11865;45.394;10.978;2022-10-16T11:34:44;21.80;99.30
23385;DHT22;11865;45.394;10.978;2022-10-16T11:37:19;21.90;99.50
23385;DHT22;11865;45.394;10.978;2022-10-16T11:39:50;22.00;98.90
23385;DHT22;11865;45.394;10.978;2022-10-16T11:42:39;22.00;98.50
23385;DHT22;11865;45.394;10.978;2022-10-16T11:45:34;22.00;99.30
23385;DHT22;11865;45.394;10.978;2022-10-16T11:48:25;21.90;99.20
23385;DHT22;11865;45.394;10.978;2022-10-16T11:50:58;21.80;99.60
23385;DHT22;11865;45.394;10.978;2022-10-16T11:53:39;21.90;98.80
23385;DHT22;11865;45.394;10.978;2022-10-16T11:56:12;22.10;98.80
23385;DHT22;11865;45.394;10.978;2022-10-16T11:58:57;22.10;99.40
23385;DHT22;11865;45.394;10.978;2022-10-16T12:01:43;22.20;99.00
23385;DHT22;11865;45.394;10.978;2022-10-16T12:07:15;22.20;98.70
23385;DHT22;11865;45.394;10.978;2022-10-16T12:09:44;22.20;98.40
23385;DHT22;11865;45.394;10.978;2022-10-16T12:18:01;22.10;98.50
23385;DHT22;11865;45.394;10.978;2022-10-16T12:20:31;22.30;98.30
23385;DHT22;11865;45.394;10.978;2022-10-16T12:23:02;22.40;98.20
23385;DHT22;11865;45.394;10.978;2022-10-16T12:25:34;22.30;97.80
23385;DHT22;11865;45.394;10.978;2022-10-16T12:30:43;22.50;98.80
23385;DHT22;11865;45.394;10.978;2022-10-16T12:33:36;22.50;98.50
23385;DHT22;11865;45.394;10.978;2022-10-16T12:36:14;22.50;97.20
23385;DHT22;11865;45.394;10.978;2022-10-16T12:41:24;22.40;97.70
23385;DHT22;11865;45.394;10.978;2022-10-16T12:43:52;22.30;97.80
23385;DHT22;11865;45.394;10.978;2022-10-16T12:48:49;22.10;98.40
23385;DHT22;11865;45.394;10.978;2022-10-16T12:51:36;22.10;98.40
23385;DHT22;11865;45.394;10.978;2022-10-16T13:02:47;22.00;98.30
23385;DHT22;11865;45.394;10.978;2022-10-16T13:13:56;22.10;98.70
23385;DHT22;11865;45.394;10.978;2022-10-16T13:17:07;22.10;98.30
23385;DHT22;11865;45.394;10.978;2022-10-16T13:19:48;22.10;97.90
23385;DHT22;11865;45.394;10.978;2022-10-16T13:22:24;22.00;98.50
23385;DHT22;11865;45.394;10.978;2022-10-16T13:27:57;22.10;98.10
23385;DHT22;11865;45.394;10.978;2022-10-16T13:30:32;22.20;98.00
23385;DHT22;11865;45.394;10.978;2022-10-16T13:33:02;22.30;97.90
23385;DHT22;11865;45.394;10.978;2022-10-16T13:35:33;22.30;97.30
23385;DHT22;11865;45.394;10.978;2022-10-16T13:38:17;22.50;97.10
23385;DHT22;11865;45.394;10.978;2022-10-16T13:40:56;22.40;96.80
23385;DHT22;11865;45.394;10.978;2022-10-16T13:43:51;22.50;96.50
23385;DHT22;11865;45.394;10.978;2022-10-16T13:46:21;22.50;96.10
23385;DHT22;11865;45.394;10.978;2022-10-16T13:49:00;22.60;95.80
23385;DHT22;11865;45.394;10.978;2022-10-16T13:51:28;22.50;95.90
23385;DHT22;11865;45.394;10.978;2022-10-16T13:53:57;22.40;96.10
23385;DHT22;11865;45.394;10.978;2022-10-16T13:56:27;22.40;97.10
23385;DHT22;11865;45.394;10.978;2022-10-16T14:01:53;22.40;96.40
23385;DHT22;11865;45.394;10.978;2022-10-16T14:04:21;22.60;95.70
23385;DHT22;11865;45.394;10.978;2022-10-16T14:06:50;22.60;96.00
23385;DHT22;11865;45.394;10.978;2022-10-16T14:09:27;22.60;95.80
23385;DHT22;11865;45.394;10.978;2022-10-16T14:12:01;22.60;96.10
23385;DHT22;11865;45.394;10.978;2022-10-16T14:14:35;22.60;96.60
23385;DHT22;11865;45.394;10.978;2022-10-16T14:17:25;22.60;96.70
23385;DHT22;11865;45.394;10.978;2022-10-16T14:19:56;22.60;96.40
23385;DHT22;11865;45.394;10.978;2022-10-16T14:24:56;22.70;96.20
23385;DHT22;11865;45.394;10.978;2022-10-16T14:27:34;22.70;96.30
23385;DHT22;11865;45.394;10.978;2022-10-16T14:30:12;22.60;96.10
23385;DHT22;11865;45.394;10.978;2022-10-16T14:32:52;22.60;96.00
23385;DHT22;11865;45.394;10.978;2022-10-16T14:37:59;22.60;96.30
23385;DHT22;11865;45.394;10.978;2022-10-16T14:40:35;22.50;96.10
23385;DHT22;11865;45.394;10.978;2022-10-16T14:43:04;22.50;95.80
23385;DHT22;11865;45.394;10.978;2022-10-16T14:45:34;22.60;95.40
23385;DHT22;11865;45.394;10.978;2022-10-16T14:48:05;22.70;95.20
23385;DHT22;11865;45.394;10.978;2022-10-16T14:50:33;22.80;95.10
23385;DHT22;11865;45.394;10.978;2022-10-16T14:53:01;22.80;95.30
23385;DHT22;11865;45.394;10.978;2022-10-16T14:55:28;22.80;95.00
23385;DHT22;11865;45.394;10.978;2022-10-16T14:57:56;22.90;95.00
23385;DHT22;11865;45.394;10.978;2022-10-16T15:00:27;23.00;94.80
23385;DHT22;11865;45.394;10.978;2022-10-16T15:02:54;23.10;94.50
23385;DHT22;11865;45.394;10.978;2022-10-16T15:05:24;23.10;94.10
23385;DHT22;11865;45.394;10.978;2022-10-16T15:07:54;23.10;94.10
23385;DHT22;11865;45.394;10.978;2022-10-16T15:10:24;23.10;94.30
23385;DHT22;11865;45.394;10.978;2022-10-16T15:12:52;23.10;94.60
23385;DHT22;11865;45.394;10.978;2022-10-16T15:17:51;22.90;94.50
23385;DHT22;11865;45.394;10.978;2022-10-16T15:20:25;22.90;94.70
23385;DHT22;11865;45.394;10.978;2022-10-16T15:22:53;22.80;95.30
23385;DHT22;11865;45.394;10.978;2022-10-16T15:28:01;22.50;95.50
23385;DHT22;11865;45.394;10.978;2022-10-16T15:30:29;22.50;95.30
23385;DHT22;11865;45.394;10.978;2022-10-16T15:32:56;22.60;95.20
23385;DHT22;11865;45.394;10.978;2022-10-16T15:35:24;22.60;95.60
23385;DHT22;11865;45.394;10.978;2022-10-16T15:37:51;22.30;96.40
23385;DHT22;11865;45.394;10.978;2022-10-16T15:40:20;22.00;97.20
23385;DHT22;11865;45.394;10.978;2022-10-16T15:42:48;21.80;97.20
23385;DHT22;11865;45.394;10.978;2022-10-16T15:45:16;21.90;97.00
23385;DHT22;11865;45.394;10.978;2022-10-16T15:47:45;22.00;96.80
23385;DHT22;11865;45.394;10.978;2022-10-16T15:50:14;22.10;96.70
23385;DHT22;11865;45.394;10.978;2022-10-16T15:52:41;22.00;96.70
23385;DHT22;11865;45.394;10.978;2022-10-16T15:55:11;22.00;96.70
23385;DHT22;11865;45.394;10.978;2022-10-16T15:57:39;22.00;96.80
23385;DHT22;11865;45.394;10.978;2022-10-16T16:00:14;21.80;97.70
23385;DHT22;11865;45.394;10.978;2022-10-16T16:02:43;21.50;97.90
23385;DHT22;11865;45.394;10.978;2022-10-16T16:05:11;21.20;98.60
23385;DHT22;11865;45.394;10.978;2022-10-16T16:07:39;21.00;99.90
23385;DHT22;11865;45.394;10.978;2022-10-16T16:10:09;20.70;99.90
23385;DHT22;11865;45.394;10.978;2022-10-16T16:12:37;20.70;99.80
23385;DHT22;11865;45.394;10.978;2022-10-16T16:15:06;20.40;99.90
23385;DHT22;11865;45.394;10.978;2022-10-16T16:17:35;20.10;99.90
23385;DHT22;11865;45.394;10.978;2022-10-16T16:20:04;20.20;99.90
23385;DHT22;11865;45.394;10.978;2022-10-16T16:22:32;20.40;99.90
23385;DHT22;11865;45.394;10.978;2022-10-16T16:25:00;20.30;99.90
23385;DHT22;11865;45.394;10.978;2022-10-16T16:27:27;20.10;99.90
23385;DHT22;11865;45.394;10.978;2022-10-16T16:29:57;20.10;99.90
23385;DHT22;11865;45.394;10.978;2022-10-16T16:32:25;20.10;99.90
23385;DHT22;11865;45.394;10.978;2022-10-16T16:34:52;19.90;99.90
23385;DHT22;11865;45.394;10.978;2022-10-16T16:37:20;19.60;99.90
23385;DHT22;11865;45.394;10.978;2022-10-16T16:39:47;19.40;99.90
23385;DHT22;11865;45.394;10.978;2022-10-16T16:42:14;19.20;99.90
23385;DHT22;11865;45.394;10.978;2022-10-16T16:44:42;19.10;99.90
23385;DHT22;11865;45.394;10.978;2022-10-16T16:47:10;19.00;99.90
23385;DHT22;11865;45.394;10.978;2022-10-16T16:49:37;18.90;99.90
23385;DHT22;11865;45.394;10.978;2022-10-16T16:52:05;18.60;99.90
23385;DHT22;11865;45.394;10.978;2022-10-16T16:54:32;18.30;99.90
23385;DHT22;11865;45.394;10.978;2022-10-16T16:57:05;18.10;99.90
23385;DHT22;11865;45.394;10.978;2022-10-16T16:59:32;17.90;99.90
23385;DHT22;11865;45.394;10.978;2022-10-16T17:01:59;17.80;99.90
23385;DHT22;11865;45.394;10.978;2022-10-16T17:04:27;17.70;99.90
23385;DHT22;11865;45.394;10.978;2022-10-16T17:06:55;17.50;99.90
23385;DHT22;11865;45.394;10.978;2022-10-16T17:09:23;17.50;99.90
23385;DHT22;11865;45.394;10.978;2022-10-16T17:11:50;17.40;99.90
23385;DHT22;11865;45.394;10.978;2022-10-16T17:14:18;17.30;99.90
23385;DHT22;11865;45.394;10.978;2022-10-16T17:16:45;17.60;99.90
23385;DHT22;11865;45.394;10.978;2022-10-16T17:19:17;17.90;99.90
23385;DHT22;11865;45.394;10.978;2022-10-16T17:21:45;17.70;99.90
23385;DHT22;11865;45.394;10.978;2022-10-16T17:24:14;17.50;99.90
23385;DHT22;11865;45.394;10.978;2022-10-16T17:26:42;17.30;99.90
23385;DHT22;11865;45.394;10.978;2022-10-16T17:29:16;17.50;99.90
23385;DHT22;11865;45.394;10.978;2022-10-16T17:31:45;17.70;99.90
23385;DHT22;11865;45.394;10.978;2022-10-16T17:34:12;18.10;99.90
23385;DHT22;11865;45.394;10.978;2022-10-16T17:36:40;18.70;99.90
23385;DHT22;11865;45.394;10.978;2022-10-16T17:39:12;19.00;99.90